Wetterdaten: Woche 02.02.15 - 08.02.15 (KW6)
Datum Zeit Temp. Aussen +5cm Feuchte Auss Luftdruck Regen Sonnenschein Regendauer Solar Windben
02.02.2015 00:00 1,0 C -0,1 C 96 % 996,7 hPa 0,0 l/m 0,00 h 0,07 h 0 W/m 11,1 km/h (2 Bft)
02.02.2015 01:00 0,9 C -0,5 C 96 % 997,2 hPa 0,0 l/m 0,00 h 0,20 h 0 W/m 11,6 km/h (2 Bft)
02.02.2015 02:00 0,8 C -0,5 C 97 % 997,6 hPa 0,0 l/m 0,00 h 0,00 h 0 W/m 12,2 km/h (2 Bft)
02.02.2015 03:00 1,1 C 0,0 C 97 % 998,0 hPa 0,2 l/m 0,00 h 0,67 h 0 W/m 14,9 km/h (3 Bft)
02.02.2015 04:00 1,1 C -0,0 C 97 % 998,4 hPa 0,2 l/m 0,00 h 0,73 h 0 W/m 15,9 km/h (3 Bft)
02.02.2015 05:00 0,8 C -0,6 C 97 % 998,8 hPa 0,2 l/m 0,00 h 1,00 h 0 W/m 17,8 km/h (3 Bft)
02.02.2015 06:00 0,7 C -0,6 C 97 % 999,0 hPa 0,2 l/m 0,00 h 0,83 h 0 W/m 15,8 km/h (3 Bft)
02.02.2015 07:00 0,5 C -0,7 C 97 % 999,2 hPa 0,0 l/m 0,00 h 0,80 h 0 W/m 16,1 km/h (3 Bft)
02.02.2015 08:00 0,7 C -0,6 C 97 % 999,5 hPa 0,2 l/m 0,00 h 0,00 h 14 W/m 18,9 km/h (3 Bft)
02.02.2015 09:00 0,7 C -0,2 C 97 % 999,8 hPa 0,2 l/m 0,27 h 0,00 h 58 W/m 20,6 km/h (4 Bft)
02.02.2015 10:00 1,0 C 0,4 C 97 % 1000,0 hPa 0,2 l/m 0,13 h 0,40 h 85 W/m 21,0 km/h (4 Bft)
02.02.2015 11:00 1,5 C 0,5 C 97 % 1000,1 hPa 0,2 l/m 0,00 h 0,77 h 64 W/m 21,3 km/h (4 Bft)
02.02.2015 12:00 1,6 C 1,1 C 97 % 1000,1 hPa 0,0 l/m 0,07 h 0,73 h 115 W/m 21,6 km/h (4 Bft)
02.02.2015 13:00 2,1 C 1,6 C 97 % 1000,1 hPa 0,0 l/m 0,17 h 0,27 h 149 W/m 23,3 km/h (4 Bft)
02.02.2015 14:00 2,5 C 1,7 C 96 % 1000,1 hPa 0,0 l/m 0,17 h 0,17 h 120 W/m 22,9 km/h (4 Bft)
02.02.2015 15:00 2,2 C 1,4 C 95 % 1000,2 hPa 0,0 l/m 0,00 h 0,00 h 73 W/m 17,6 km/h (3 Bft)
02.02.2015 16:00 2,2 C 1,1 C 95 % 1000,5 hPa 0,0 l/m 0,00 h 0,03 h 16 W/m 17,6 km/h (3 Bft)
02.02.2015 17:00 1,9 C 0,7 C 95 % 1000,7 hPa 0,0 l/m 0,00 h 0,00 h 5 W/m 18,3 km/h (3 Bft)
02.02.2015 18:00 1,3 C 0,1 C 95 % 1001,2 hPa 0,0 l/m 0,00 h 0,00 h 0 W/m 20,0 km/h (4 Bft)
02.02.2015 19:00 1,3 C 0,0 C 95 % 1001,3 hPa 0,0 l/m 0,00 h 0,00 h 0 W/m 15,8 km/h (3 Bft)
02.02.2015 20:00 1,0 C -0,3 C 95 % 1001,3 hPa 0,0 l/m 0,00 h 0,00 h 0 W/m 18,0 km/h (3 Bft)
02.02.2015 21:00 0,8 C -0,5 C 95 % 1001,5 hPa 0,0 l/m 0,00 h 0,00 h 0 W/m 15,8 km/h (3 Bft)
02.02.2015 22:00 0,5 C -0,6 C 96 % 1001,4 hPa 0,0 l/m 0,00 h 0,00 h 0 W/m 14,6 km/h (3 Bft)
02.02.2015 23:00 0,8 C -0,1 C 96 % 1001,5 hPa 0,0 l/m 0,00 h 0,00 h 0 W/m 16,2 km/h (3 Bft)
03.02.2015 00:00 0,7 C -0,4 C 96 % 1001,6 hPa 0,0 l/m 0,00 h 0,00 h 0 W/m 15,6 km/h (3 Bft)
03.02.2015 01:00 0,7 C -0,1 C 96 % 1001,5 hPa 0,0 l/m 0,00 h 0,00 h 0 W/m 18,2 km/h (3 Bft)
03.02.2015 02:00 0,7 C 0,0 C 96 % 1001,6 hPa 0,0 l/m 0,00 h 0,00 h 0 W/m 16,6 km/h (3 Bft)
03.02.2015 03:00 0,5 C -0,7 C 96 % 1001,7 hPa 0,0 l/m 0,00 h 0,00 h 0 W/m 11,5 km/h (2 Bft)
03.02.2015 04:00 0,4 C -0,6 C 96 % 1001,7 hPa 0,0 l/m 0,00 h 0,00 h 0 W/m 14,4 km/h (3 Bft)
03.02.2015 05:00 0,4 C -0,6 C 96 % 1001,8 hPa 0,0 l/m 0,00 h 0,00 h 0 W/m 13,8 km/h (3 Bft)
03.02.2015 06:00 0,3 C -0,6 C 96 % 1001,7 hPa 0,0 l/m 0,00 h 0,00 h 0 W/m 12,0 km/h (2 Bft)
03.02.2015 07:00 0,4 C -0,6 C 96 % 1002,0 hPa 0,0 l/m 0,00 h 0,00 h 0 W/m 12,1 km/h (2 Bft)
03.02.2015 08:00 0,4 C -0,6 C 96 % 1002,4 hPa 0,0 l/m 0,00 h 0,00 h 11 W/m 9,9 km/h (2 Bft)
03.02.2015 09:00 0,5 C -0,0 C 96 % 1003,0 hPa 0,0 l/m 0,00 h 0,00 h 49 W/m 10,5 km/h (2 Bft)
03.02.2015 10:00 0,8 C 0,1 C 96 % 1003,5 hPa 0,0 l/m 0,00 h 0,47 h 67 W/m 11,4 km/h (2 Bft)
03.02.2015 11:00 1,6 C 1,4 C 96 % 1003,8 hPa 0,2 l/m 0,70 h 0,00 h 199 W/m 10,0 km/h (2 Bft)
03.02.2015 12:00 2,8 C 2,3 C 95 % 1003,8 hPa 0,0 l/m 0,28 h 0,07 h 149 W/m 10,0 km/h (2 Bft)
03.02.2015 13:00 3,1 C 2,7 C 93 % 1003,9 hPa 0,0 l/m 0,10 h 0,00 h 143 W/m 10,9 km/h (2 Bft)
03.02.2015 14:00 3,4 C 2,7 C 92 % 1004,1 hPa 0,0 l/m 0,00 h 0,00 h 85 W/m 9,3 km/h (2 Bft)
03.02.2015 15:00 3,5 C 2,7 C 91 % 1004,4 hPa 0,0 l/m 0,00 h 0,10 h 58 W/m 7,8 km/h (2 Bft)
03.02.2015 16:00 3,4 C 2,2 C 91 % 1004,6 hPa 0,0 l/m 0,00 h 0,03 h 35 W/m 7,3 km/h (2 Bft)
03.02.2015 17:00 2,9 C 0,3 C 90 % 1005,3 hPa 0,0 l/m 0,07 h 0,00 h 10 W/m 3,3 km/h (1 Bft)
03.02.2015 18:00 1,4 C -1,9 C 89 % 1005,7 hPa 0,0 l/m 0,00 h 0,00 h 0 W/m 3,1 km/h (1 Bft)
03.02.2015 19:00 0,3 C -1,7 C 91 % 1006,1 hPa 0,0 l/m 0,00 h 0,00 h 0 W/m 6,2 km/h (2 Bft)
03.02.2015 20:00 0,4 C -0,9 C 93 % 1006,6 hPa 0,0 l/m 0,00 h 0,00 h 0 W/m 6,3 km/h (2 Bft)
03.02.2015 21:00 0,4 C -1,5 C 94 % 1007,4 hPa 0,0 l/m 0,00 h 0,00 h 0 W/m 8,0 km/h (2 Bft)
03.02.2015 22:00 0,0 C -1,7 C 95 % 1008,1 hPa 0,0 l/m 0,00 h 0,00 h 0 W/m 6,8 km/h (2 Bft)
03.02.2015 23:00 -0,3 C -1,3 C 95 % 1008,7 hPa 0,0 l/m 0,00 h 0,00 h 0 W/m 11,7 km/h (2 Bft)
04.02.2015 00:00 -0,1 C -0,9 C 94 % 1009,2 hPa 0,0 l/m 0,00 h 0,00 h 0 W/m 12,1 km/h (2 Bft)
04.02.2015 01:00 0,2 C -1,0 C 92 % 1009,6 hPa 0,0 l/m 0,00 h 0,00 h 0 W/m 9,6 km/h (2 Bft)
04.02.2015 02:00 -0,5 C -2,0 C 92 % 1010,1 hPa 0,0 l/m 0,00 h 0,00 h 0 W/m 8,3 km/h (2 Bft)
04.02.2015 03:00 -1,2 C -2,7 C 93 % 1010,6 hPa 0,0 l/m 0,00 h 0,00 h 0 W/m 6,4 km/h (2 Bft)
04.02.2015 04:00 -1,3 C -2,2 C 94 % 1010,8 hPa 0,0 l/m 0,00 h 0,00 h 0 W/m 5,7 km/h (1 Bft)
04.02.2015 05:00 -1,4 C -3,0 C 94 % 1011,0 hPa 0,0 l/m 0,00 h 0,00 h 0 W/m 3,8 km/h (1 Bft)
04.02.2015 06:00 -2,1 C -3,9 C 94 % 1011,3 hPa 0,0 l/m 0,00 h 0,00 h 0 W/m 3,5 km/h (1 Bft)
04.02.2015 07:00 -2,6 C -3,5 C 94 % 1012,2 hPa 0,0 l/m 0,00 h 0,00 h 0 W/m 5,9 km/h (2 Bft)
04.02.2015 08:00 -2,2 C -3,0 C 95 % 1012,8 hPa 0,0 l/m 0,30 h 0,00 h 22 W/m 3,7 km/h (1 Bft)
04.02.2015 09:00 -1,8 C -1,7 C 95 % 1013,1 hPa 0,0 l/m 0,00 h 0,00 h 57 W/m 5,1 km/h (1 Bft)
04.02.2015 10:00 -0,6 C -0,5 C 96 % 1013,6 hPa 0,0 l/m 0,07 h 0,00 h 118 W/m 6,1 km/h (2 Bft)
04.02.2015 11:00 0,5 C 0,9 C 96 % 1013,8 hPa 0,0 l/m 0,37 h 0,00 h 166 W/m 8,1 km/h (2 Bft)
04.02.2015 12:00 1,8 C 2,2 C 94 % 1013,8 hPa 0,2 l/m 0,70 h 0,00 h 205 W/m 6,9 km/h (2 Bft)
04.02.2015 13:00 2,7 C 2,1 C 89 % 1013,9 hPa 0,0 l/m 0,80 h 0,00 h 252 W/m 8,8 km/h (2 Bft)
04.02.2015 14:00 3,8 C 2,5 C 84 % 1014,2 hPa 0,0 l/m 0,70 h 0,00 h 201 W/m 6,5 km/h (2 Bft)
04.02.2015 15:00 4,1 C 1,9 C 82 % 1014,4 hPa 0,0 l/m 0,90 h 0,00 h 159 W/m 5,7 km/h (1 Bft)
04.02.2015 16:00 3,4 C 1,7 C 82 % 1014,9 hPa 0,0 l/m 0,17 h 0,00 h 43 W/m 5,7 km/h (1 Bft)
04.02.2015 17:00 2,6 C 0,2 C 83 % 1015,3 hPa 0,0 l/m 0,00 h 0,00 h 8 W/m 5,5 km/h (1 Bft)
04.02.2015 18:00 1,2 C -1,8 C 83 % 1016,0 hPa 0,0 l/m 0,00 h 0,00 h 0 W/m 5,1 km/h (1 Bft)
04.02.2015 19:00 0,0 C -2,4 C 86 % 1016,8 hPa 0,0 l/m 0,00 h 0,00 h 0 W/m 7,4 km/h (2 Bft)
04.02.2015 20:00 -0,7 C -3,1 C 87 % 1017,5 hPa 0,0 l/m 0,00 h 0,00 h 0 W/m 5,2 km/h (1 Bft)
04.02.2015 21:00 -0,9 C -2,2 C 88 % 1018,3 hPa 0,0 l/m 0,00 h 0,00 h 0 W/m 11,3 km/h (2 Bft)
04.02.2015 22:00 -1,3 C -3,2 C 88 % 1018,6 hPa 0,0 l/m 0,00 h 0,00 h 0 W/m 6,9 km/h (2 Bft)
04.02.2015 23:00 -1,9 C -3,5 C 89 % 1019,1 hPa 0,0 l/m 0,00 h 0,00 h 0 W/m 6,0 km/h (2 Bft)
05.02.2015 00:00 -2,5 C -4,4 C 89 % 1019,3 hPa 0,0 l/m 0,00 h 0,00 h 0 W/m 4,2 km/h (1 Bft)
05.02.2015 01:00 -3,2 C -4,9 C 90 % 1019,6 hPa 0,0 l/m 0,00 h 0,00 h 0 W/m 3,0 km/h (1 Bft)
05.02.2015 02:00 -4,0 C -5,6 C 90 % 1019,6 hPa 0,0 l/m 0,00 h 0,00 h 0 W/m 2,3 km/h (1 Bft)
05.02.2015 03:00 -4,3 C -5,0 C 91 % 1019,5 hPa 0,0 l/m 0,00 h 0,00 h 0 W/m 3,5 km/h (1 Bft)
05.02.2015 04:00 -3,8 C -4,6 C 92 % 1019,5 hPa 0,0 l/m 0,00 h 0,00 h 0 W/m 1,8 km/h (1 Bft)
05.02.2015 05:00 -3,8 C -4,5 C 93 % 1019,7 hPa 0,0 l/m 0,00 h 0,00 h 0 W/m 1,9 km/h (1 Bft)
05.02.2015 06:00 -3,5 C -4,2 C 94 % 1019,7 hPa 0,0 l/m 0,00 h 0,00 h 0 W/m 2,3 km/h (1 Bft)
05.02.2015 07:00 -3,2 C -3,8 C 94 % 1020,2 hPa 0,0 l/m 0,00 h 0,00 h 0 W/m 3,3 km/h (1 Bft)
05.02.2015 08:00 -2,8 C -3,1 C 94 % 1020,9 hPa 0,0 l/m 0,00 h 0,00 h 11 W/m 3,9 km/h (1 Bft)
05.02.2015 09:00 -2,1 C -2,3 C 95 % 1021,4 hPa 0,0 l/m 0,30 h 0,00 h 73 W/m 7,4 km/h (2 Bft)
05.02.2015 10:00 -1,2 C -1,6 C 94 % 1021,7 hPa 0,0 l/m 0,73 h 0,00 h 204 W/m 13,7 km/h (3 Bft)
05.02.2015 11:00 -0,5 C -0,9 C 89 % 1022,0 hPa 0,0 l/m 0,10 h 0,00 h 110 W/m 13,9 km/h (3 Bft)
05.02.2015 12:00 -0,2 C -0,7 C 80 % 1022,0 hPa 0,0 l/m 0,00 h 0,00 h 87 W/m 24,3 km/h (4 Bft)
05.02.2015 13:00 -0,3 C -0,9 C 78 % 1022,3 hPa 0,0 l/m 0,00 h 0,00 h 87 W/m 26,4 km/h (4 Bft)
05.02.2015 14:00 -0,4 C -1,2 C 76 % 1022,4 hPa 0,0 l/m 0,17 h 0,00 h 105 W/m 22,7 km/h (4 Bft)
05.02.2015 15:00 0,3 C -0,6 C 73 % 1022,5 hPa 0,0 l/m 0,93 h 0,00 h 171 W/m 24,3 km/h (4 Bft)
05.02.2015 16:00 0,3 C -1,2 C 73 % 1022,9 hPa 0,0 l/m 0,20 h 0,00 h 58 W/m 19,5 km/h (3 Bft)
05.02.2015 17:00 -0,2 C -1,8 C 76 % 1023,0 hPa 0,0 l/m 0,30 h 0,00 h 17 W/m 18,0 km/h (3 Bft)
05.02.2015 18:00 -0,3 C -1,8 C 79 % 1023,5 hPa 0,0 l/m 0,00 h 0,00 h 0 W/m 23,6 km/h (4 Bft)
05.02.2015 19:00 -0,5 C -1,8 C 80 % 1024,3 hPa 0,0 l/m 0,00 h 0,00 h 0 W/m 26,7 km/h (4 Bft)
05.02.2015 20:00 -0,5 C -2,1 C 79 % 1024,8 hPa 0,0 l/m 0,00 h 0,00 h 0 W/m 25,8 km/h (4 Bft)
05.02.2015 21:00 -1,0 C -2,5 C 81 % 1024,8 hPa 0,0 l/m 0,00 h 0,00 h 0 W/m 22,2 km/h (4 Bft)
05.02.2015 22:00 -0,7 C -2,1 C 80 % 1025,2 hPa 0,0 l/m 0,00 h 0,00 h 0 W/m 28,6 km/h (4 Bft)
05.02.2015 23:00 -1,0 C -2,7 C 81 % 1025,3 hPa 0,0 l/m 0,00 h 0,00 h 0 W/m 27,3 km/h (4 Bft)
06.02.2015 00:00 -1,1 C -2,4 C 82 % 1025,6 hPa 0,0 l/m 0,00 h 0,00 h 0 W/m 27,2 km/h (4 Bft)
06.02.2015 01:00 -1,4 C -2,8 C 81 % 1025,5 hPa 0,0 l/m 0,00 h 0,00 h 0 W/m 25,3 km/h (4 Bft)
06.02.2015 02:00 -1,8 C -3,3 C 82 % 1025,5 hPa 0,0 l/m 0,00 h 0,00 h 0 W/m 23,4 km/h (4 Bft)
06.02.2015 03:00 -2,0 C -3,4 C 84 % 1025,5 hPa 0,0 l/m 0,00 h 0,00 h 0 W/m 26,3 km/h (4 Bft)
06.02.2015 04:00 -2,2 C -3,5 C 85 % 1025,4 hPa 0,0 l/m 0,00 h 0,00 h 0 W/m 27,4 km/h (4 Bft)
06.02.2015 05:00 -2,5 C -3,9 C 86 % 1025,6 hPa 0,0 l/m 0,00 h 0,00 h 0 W/m 24,6 km/h (4 Bft)
06.02.2015 06:00 -2,4 C -3,4 C 86 % 1025,9 hPa 0,0 l/m 0,00 h 0,00 h 0 W/m 30,7 km/h (5 Bft)
06.02.2015 07:00 -2,3 C -3,4 C 85 % 1026,3 hPa 0,0 l/m 0,00 h 0,00 h 5 W/m 27,5 km/h (4 Bft)
06.02.2015 08:00 -2,6 C -3,7 C 86 % 1026,6 hPa 0,0 l/m 0,37 h 0,00 h 27 W/m 25,0 km/h (4 Bft)
06.02.2015 09:00 -2,4 C -2,9 C 85 % 1027,0 hPa 0,0 l/m 0,83 h 0,00 h 111 W/m 28,8 km/h (5 Bft)
06.02.2015 10:00 -1,4 C -1,8 C 82 % 1027,1 hPa 0,0 l/m 0,90 h 0,00 h 185 W/m 32,2 km/h (5 Bft)
06.02.2015 11:00 -0,0 C -1,1 C 78 % 1027,1 hPa 0,0 l/m 1,00 h 0,00 h 331 W/m 35,1 km/h (5 Bft)
06.02.2015 12:00 1,5 C -0,0 C 73 % 1027,2 hPa 0,0 l/m 0,98 h 0,00 h 370 W/m 35,0 km/h (5 Bft)
06.02.2015 13:00 2,4 C 0,7 C 70 % 1027,2 hPa 0,0 l/m 1,00 h 0,00 h 357 W/m 30,9 km/h (5 Bft)
06.02.2015 14:00 3,1 C 1,1 C 68 % 1027,1 hPa 0,0 l/m 1,00 h 0,00 h 289 W/m 28,5 km/h (4 Bft)
06.02.2015 15:00 3,2 C 0,9 C 67 % 1027,1 hPa 0,0 l/m 1,00 h 0,00 h 174 W/m 27,3 km/h (4 Bft)
06.02.2015 16:00 2,0 C 0,2 C 71 % 1027,2 hPa 0,0 l/m 0,27 h 0,00 h 61 W/m 25,9 km/h (4 Bft)
06.02.2015 17:00 1,0 C -0,9 C 75 % 1027,7 hPa 0,0 l/m 0,17 h 0,00 h 13 W/m 26,1 km/h (4 Bft)
06.02.2015 18:00 0,4 C -1,2 C 77 % 1028,1 hPa 0,0 l/m 0,00 h 0,00 h 0 W/m 29,1 km/h (5 Bft)
06.02.2015 19:00 -0,0 C -1,8 C 78 % 1028,4 hPa 0,0 l/m 0,00 h 0,00 h 0 W/m 25,7 km/h (4 Bft)
06.02.2015 20:00 -0,4 C -2,2 C 80 % 1028,8 hPa 0,0 l/m 0,00 h 0,00 h 0 W/m 24,0 km/h (4 Bft)
06.02.2015 21:00 -0,7 C -2,3 C 81 % 1029,2 hPa 0,0 l/m 0,00 h 0,00 h 0 W/m 23,1 km/h (4 Bft)
06.02.2015 22:00 -0,9 C -2,5 C 82 % 1029,5 hPa 0,0 l/m 0,00 h 0,00 h 0 W/m 22,8 km/h (4 Bft)
06.02.2015 23:00 -1,1 C -2,8 C 82 % 1029,8 hPa 0,0 l/m 0,00 h 0,00 h 0 W/m 23,3 km/h (4 Bft)
07.02.2015 00:00 -1,4 C -3,2 C 82 % 1030,0 hPa 0,0 l/m 0,00 h 0,00 h 0 W/m 16,6 km/h (3 Bft)
07.02.2015 01:00 -1,9 C -3,9 C 83 % 1030,2 hPa 0,0 l/m 0,00 h 0,00 h 0 W/m 11,5 km/h (2 Bft)
07.02.2015 02:00 -2,2 C -4,1 C 84 % 1030,5 hPa 0,0 l/m 0,00 h 0,00 h 0 W/m 8,7 km/h (2 Bft)
07.02.2015 03:00 -2,4 C -4,0 C 85 % 1030,7 hPa 0,0 l/m 0,00 h 0,00 h 0 W/m 14,9 km/h (3 Bft)
07.02.2015 04:00 -2,5 C -4,4 C 85 % 1030,6 hPa 0,0 l/m 0,00 h 0,00 h 0 W/m 7,0 km/h (2 Bft)
07.02.2015 05:00 -3,3 C -5,3 C 85 % 1030,6 hPa 0,0 l/m 0,00 h 0,00 h 0 W/m 5,2 km/h (1 Bft)
07.02.2015 06:00 -3,7 C -5,1 C 87 % 1030,6 hPa 0,0 l/m 0,00 h 0,00 h 0 W/m 6,6 km/h (2 Bft)
07.02.2015 07:00 -3,5 C -4,4 C 89 % 1031,0 hPa 0,0 l/m 0,00 h 0,00 h 4 W/m 11,5 km/h (2 Bft)
07.02.2015 08:00 -3,4 C -4,4 C 89 % 1031,7 hPa 0,0 l/m 0,37 h 0,00 h 28 W/m 9,7 km/h (2 Bft)
07.02.2015 09:00 -3,0 C -3,6 C 90 % 1032,1 hPa 0,0 l/m 1,00 h 0,00 h 137 W/m 6,9 km/h (2 Bft)
07.02.2015 10:00 -1,3 C -2,2 C 89 % 1032,4 hPa 0,0 l/m 1,00 h 0,00 h 270 W/m 6,9 km/h (2 Bft)
07.02.2015 11:00 0,8 C -0,5 C 81 % 1032,3 hPa 0,0 l/m 1,00 h 0,00 h 354 W/m 7,5 km/h (2 Bft)
07.02.2015 12:00 3,1 C 1,2 C 69 % 1031,8 hPa 0,0 l/m 0,98 h 0,00 h 389 W/m 8,9 km/h (2 Bft)
07.02.2015 13:00 4,1 C 2,9 C 65 % 1031,3 hPa 0,0 l/m 0,60 h 0,00 h 262 W/m 10,0 km/h (2 Bft)
07.02.2015 14:00 4,2 C 3,5 C 71 % 1030,4 hPa 0,0 l/m 0,13 h 0,00 h 140 W/m 8,8 km/h (2 Bft)
07.02.2015 15:00 4,2 C 3,3 C 76 % 1030,5 hPa 0,0 l/m 0,13 h 0,00 h 102 W/m 13,2 km/h (3 Bft)
07.02.2015 16:00 3,9 C 2,2 C 82 % 1030,4 hPa 0,0 l/m 0,03 h 0,03 h 44 W/m 11,9 km/h (2 Bft)
07.02.2015 17:00 3,2 C 1,3 C 89 % 1030,1 hPa 0,0 l/m 0,23 h 0,07 h 14 W/m 11,3 km/h (2 Bft)
07.02.2015 18:00 2,7 C 1,1 C 92 % 1030,1 hPa 0,0 l/m 0,00 h 0,08 h 0 W/m 11,1 km/h (2 Bft)
07.02.2015 19:00 2,6 C 1,1 C 94 % 1029,9 hPa 0,0 l/m 0,00 h 0,07 h 0 W/m 9,8 km/h (2 Bft)
07.02.2015 20:00 2,8 C 1,4 C 95 % 1029,6 hPa 0,0 l/m 0,00 h 0,20 h 0 W/m 10,8 km/h (2 Bft)
07.02.2015 21:00 3,1 C 1,7 C 96 % 1029,1 hPa 0,0 l/m 0,00 h 0,03 h 0 W/m 16,4 km/h (3 Bft)
07.02.2015 22:00 3,3 C 2,0 C 97 % 1028,7 hPa 0,2 l/m 0,00 h 0,00 h 0 W/m 16,4 km/h (3 Bft)
07.02.2015 23:00 3,5 C 2,1 C 97 % 1028,3 hPa 0,0 l/m 0,00 h 0,00 h 0 W/m 18,0 km/h (3 Bft)
08.02.2015 00:00 3,6 C 2,2 C 97 % 1028,0 hPa 0,0 l/m 0,00 h 0,00 h 0 W/m 19,9 km/h (4 Bft)
08.02.2015 01:00 3,5 C 2,2 C 97 % 1027,3 hPa 0,0 l/m 0,00 h 0,00 h 0 W/m 22,2 km/h (4 Bft)
08.02.2015 02:00 3,6 C 2,2 C 97 % 1027,4 hPa 0,0 l/m 0,00 h 0,00 h 0 W/m 24,3 km/h (4 Bft)
08.02.2015 03:00 3,5 C 2,2 C 96 % 1027,1 hPa 0,0 l/m 0,00 h 0,00 h 0 W/m 18,0 km/h (3 Bft)
08.02.2015 04:00 3,4 C 2,2 C 95 % 1026,8 hPa 0,0 l/m 0,00 h 0,13 h 0 W/m 21,2 km/h (4 Bft)
08.02.2015 05:00 2,8 C 1,0 C 93 % 1026,8 hPa 0,2 l/m 0,00 h 0,80 h 0 W/m 19,4 km/h (3 Bft)
08.02.2015 06:00 2,7 C 1,1 C 93 % 1027,1 hPa 0,0 l/m 0,00 h 0,07 h 0 W/m 20,5 km/h (4 Bft)
08.02.2015 07:00 3,0 C 1,1 C 90 % 1027,9 hPa 0,0 l/m 0,00 h 0,00 h 0 W/m 23,2 km/h (4 Bft)
08.02.2015 08:00 3,3 C 1,4 C 86 % 1028,4 hPa 0,0 l/m 0,00 h 0,00 h 15 W/m 21,7 km/h (4 Bft)
08.02.2015 09:00 3,4 C 1,4 C 84 % 1028,9 hPa 0,0 l/m 0,00 h 0,30 h 28 W/m 23,7 km/h (4 Bft)
08.02.2015 10:00 3,4 C 1,8 C 85 % 1029,9 hPa 0,2 l/m 0,03 h 0,23 h 87 W/m 26,1 km/h (4 Bft)
08.02.2015 11:00 2,7 C 1,4 C 90 % 1030,5 hPa 0,2 l/m 0,00 h 0,43 h 115 W/m 22,2 km/h (4 Bft)
08.02.2015 12:00 3,3 C 2,4 C 89 % 1030,7 hPa 0,0 l/m 0,00 h 0,00 h 125 W/m 22,1 km/h (4 Bft)
08.02.2015 13:00 4,2 C 3,0 C 83 % 1030,8 hPa 0,0 l/m 0,80 h 0,00 h 290 W/m 22,5 km/h (4 Bft)
08.02.2015 14:00 5,0 C 3,5 C 77 % 1030,8 hPa 0,2 l/m 1,00 h 0,00 h 298 W/m 24,3 km/h (4 Bft)
08.02.2015 15:00 5,3 C 3,8 C 74 % 1031,0 hPa 0,0 l/m 1,00 h 0,00 h 217 W/m 25,8 km/h (4 Bft)
08.02.2015 16:00 4,7 C 3,2 C 75 % 1031,0 hPa 0,0 l/m 1,00 h 0,00 h 93 W/m 26,4 km/h (4 Bft)
08.02.2015 17:00 4,0 C 2,1 C 80 % 1031,1 hPa 0,0 l/m 0,43 h 0,00 h 20 W/m 13,0 km/h (3 Bft)
08.02.2015 18:00 3,2 C 0,5 C 82 % 1031,6 hPa 0,0 l/m 0,00 h 0,00 h 0 W/m 6,8 km/h (2 Bft)
08.02.2015 19:00 2,5 C 0,4 C 84 % 1031,8 hPa 0,0 l/m 0,00 h 0,00 h 0 W/m 6,4 km/h (2 Bft)
08.02.2015 20:00 1,9 C -0,9 C 86 % 1032,0 hPa 0,0 l/m 0,00 h 0,00 h 0 W/m 5,4 km/h (1 Bft)
08.02.2015 21:00 1,7 C 0,4 C 89 % 1032,0 hPa 0,0 l/m 0,00 h 0,00 h 0 W/m 7,1 km/h (2 Bft)
08.02.2015 22:00 2,2 C 1,3 C 91 % 1031,7 hPa 0,0 l/m 0,00 h 0,00 h 0 W/m 9,2 km/h (2 Bft)
08.02.2015 23:00 2,5 C 1,0 C 91 % 1031,4 hPa 0,0 l/m 0,00 h 0,00 h 0 W/m 10,3 km/h (2 Bft)
Min-Datum _ 05.02.15 05.02.15 07.02.15 02.02.15 - - - - 05.02.15
_ Min-Zeit 03:08 01:58 13:12 00:02 - - - - 01:30
Minimum _ -4,4 C -5,6 C 63 % 996,4 hPa - - - - 0,0 km/h (0 Bft)
Max-Datum _ 08.02.15 07.02.15 02.02.15 07.02.15 02.02.15 02.02.15 02.02.15 07.02.15 06.02.15
_ Max-Zeit 15:28 14:26 00:34 10:28 03:42 09:22 00:56 13:18 11:12
Maximum _ 5,4 C 3,9 C 97 % 1032,6 hPa 0,2 l/m 0,03 h 0,03 h 526 W/m 56,5 km/h
O (7 Bft)
Durchschnitt _ 0,6 C -0,7 C 88 % 1018,1 hPa #3,0 l/m #25:57 h #9:47 h 120 W/m 15,1 km/h (3 Bft)
© 2015 W. Hausmann